sensor_id;sensor_type;location;lat;lon;timestamp;P1;durP1;ratioP1;P2;durP2;ratioP2
51489;SDS011;57752;53.574;9.736;2023-04-15T00:01:24;18.33;;;7.15;;
51489;SDS011;57752;53.574;9.736;2023-04-15T00:06:24;16.58;;;6.72;;
51489;SDS011;57752;53.574;9.736;2023-04-15T00:11:25;15.75;;;6.57;;
51489;SDS011;57752;53.574;9.736;2023-04-15T00:16:25;15.45;;;6.20;;
51489;SDS011;57752;53.574;9.736;2023-04-15T00:21:25;14.75;;;6.40;;
51489;SDS011;57752;53.574;9.736;2023-04-15T00:26:26;18.55;;;7.03;;
51489;SDS011;57752;53.574;9.736;2023-04-15T00:31:26;16.85;;;7.00;;
51489;SDS011;57752;53.574;9.736;2023-04-15T00:36:27;15.00;;;6.93;;
51489;SDS011;57752;53.574;9.736;2023-04-15T00:41:27;16.00;;;6.35;;
51489;SDS011;57752;53.574;9.736;2023-04-15T00:46:27;16.90;;;7.45;;
51489;SDS011;57752;53.574;9.736;2023-04-15T00:51:29;19.35;;;9.07;;
51489;SDS011;57752;53.574;9.736;2023-04-15T00:56:36;22.77;;;10.02;;
51489;SDS011;57752;53.574;9.736;2023-04-15T01:01:37;23.63;;;11.00;;
51489;SDS011;57752;53.574;9.736;2023-04-15T01:06:37;23.15;;;10.65;;
51489;SDS011;57752;53.574;9.736;2023-04-15T01:11:37;26.83;;;11.50;;
51489;SDS011;57752;53.574;9.736;2023-04-15T01:16:37;27.58;;;11.85;;
51489;SDS011;57752;53.574;9.736;2023-04-15T01:21:38;25.98;;;11.15;;
51489;SDS011;57752;53.574;9.736;2023-04-15T01:26:39;23.17;;;10.50;;
51489;SDS011;57752;53.574;9.736;2023-04-15T01:31:39;23.50;;;10.07;;
51489;SDS011;57752;53.574;9.736;2023-04-15T01:36:39;24.42;;;10.35;;
51489;SDS011;57752;53.574;9.736;2023-04-15T01:41:40;25.63;;;10.70;;
51489;SDS011;57752;53.574;9.736;2023-04-15T01:46:41;23.50;;;10.75;;
51489;SDS011;57752;53.574;9.736;2023-04-15T01:51:41;21.70;;;9.80;;
51489;SDS011;57752;53.574;9.736;2023-04-15T01:56:41;23.98;;;10.30;;
51489;SDS011;57752;53.574;9.736;2023-04-15T02:01:41;21.85;;;9.57;;
51489;SDS011;57752;53.574;9.736;2023-04-15T02:06:42;23.55;;;10.80;;
51489;SDS011;57752;53.574;9.736;2023-04-15T02:11:42;24.73;;;10.40;;
51489;SDS011;57752;53.574;9.736;2023-04-15T02:16:42;23.35;;;10.30;;
51489;SDS011;57752;53.574;9.736;2023-04-15T02:21:43;24.88;;;10.88;;
51489;SDS011;57752;53.574;9.736;2023-04-15T02:26:43;24.13;;;10.63;;
51489;SDS011;57752;53.574;9.736;2023-04-15T02:31:43;25.80;;;11.75;;
51489;SDS011;57752;53.574;9.736;2023-04-15T02:36:44;22.42;;;10.02;;
51489;SDS011;57752;53.574;9.736;2023-04-15T02:41:46;23.40;;;10.27;;
51489;SDS011;57752;53.574;9.736;2023-04-15T02:46:50;24.48;;;10.95;;
51489;SDS011;57752;53.574;9.736;2023-04-15T02:51:52;23.42;;;10.23;;
51489;SDS011;57752;53.574;9.736;2023-04-15T02:56:53;26.75;;;10.73;;
51489;SDS011;57752;53.574;9.736;2023-04-15T03:01:55;23.80;;;10.68;;
51489;SDS011;57752;53.574;9.736;2023-04-15T03:07:00;24.20;;;10.88;;
51489;SDS011;57752;53.574;9.736;2023-04-15T03:12:01;25.67;;;11.38;;
51489;SDS011;57752;53.574;9.736;2023-04-15T03:17:01;27.33;;;11.25;;
51489;SDS011;57752;53.574;9.736;2023-04-15T03:22:01;25.23;;;10.98;;
51489;SDS011;57752;53.574;9.736;2023-04-15T03:27:01;28.70;;;12.10;;
51489;SDS011;57752;53.574;9.736;2023-04-15T03:32:02;26.33;;;11.35;;
51489;SDS011;57752;53.574;9.736;2023-04-15T03:37:02;28.85;;;11.80;;
51489;SDS011;57752;53.574;9.736;2023-04-15T03:42:02;29.50;;;11.85;;
51489;SDS011;57752;53.574;9.736;2023-04-15T03:47:02;30.83;;;12.48;;
51489;SDS011;57752;53.574;9.736;2023-04-15T03:52:03;30.48;;;12.57;;
51489;SDS011;57752;53.574;9.736;2023-04-15T03:57:03;32.47;;;13.77;;
51489;SDS011;57752;53.574;9.736;2023-04-15T04:02:03;28.23;;;12.50;;
51489;SDS011;57752;53.574;9.736;2023-04-15T04:07:03;29.08;;;11.60;;
51489;SDS011;57752;53.574;9.736;2023-04-15T04:12:03;31.38;;;13.63;;
51489;SDS011;57752;53.574;9.736;2023-04-15T04:17:03;31.30;;;13.63;;
51489;SDS011;57752;53.574;9.736;2023-04-15T04:22:04;34.50;;;14.80;;
51489;SDS011;57752;53.574;9.736;2023-04-15T04:27:04;35.55;;;14.77;;
51489;SDS011;57752;53.574;9.736;2023-04-15T04:32:04;37.33;;;15.93;;
51489;SDS011;57752;53.574;9.736;2023-04-15T04:37:04;38.10;;;16.38;;
51489;SDS011;57752;53.574;9.736;2023-04-15T04:42:05;38.00;;;15.35;;
51489;SDS011;57752;53.574;9.736;2023-04-15T04:47:06;37.70;;;15.80;;
51489;SDS011;57752;53.574;9.736;2023-04-15T04:52:06;40.35;;;17.05;;
51489;SDS011;57752;53.574;9.736;2023-04-15T04:57:06;46.58;;;17.60;;
51489;SDS011;57752;53.574;9.736;2023-04-15T05:02:07;47.83;;;20.00;;
51489;SDS011;57752;53.574;9.736;2023-04-15T05:07:07;46.67;;;17.73;;
51489;SDS011;57752;53.574;9.736;2023-04-15T05:12:07;41.08;;;17.20;;
51489;SDS011;57752;53.574;9.736;2023-04-15T05:17:08;57.88;;;20.58;;
51489;SDS011;57752;53.574;9.736;2023-04-15T05:22:08;58.13;;;22.83;;
51489;SDS011;57752;53.574;9.736;2023-04-15T05:27:08;56.45;;;22.73;;
51489;SDS011;57752;53.574;9.736;2023-04-15T05:32:10;59.97;;;22.50;;
51489;SDS011;57752;53.574;9.736;2023-04-15T05:37:10;63.70;;;22.63;;
51489;SDS011;57752;53.574;9.736;2023-04-15T05:42:11;61.97;;;22.33;;
51489;SDS011;57752;53.574;9.736;2023-04-15T05:47:11;65.45;;;24.10;;
51489;SDS011;57752;53.574;9.736;2023-04-15T05:52:11;59.05;;;22.08;;
51489;SDS011;57752;53.574;9.736;2023-04-15T05:57:11;67.80;;;23.83;;
51489;SDS011;57752;53.574;9.736;2023-04-15T06:02:11;66.65;;;25.13;;
51489;SDS011;57752;53.574;9.736;2023-04-15T06:07:12;66.10;;;25.67;;
51489;SDS011;57752;53.574;9.736;2023-04-15T06:12:12;66.70;;;24.35;;
51489;SDS011;57752;53.574;9.736;2023-04-15T06:17:12;66.38;;;25.45;;
51489;SDS011;57752;53.574;9.736;2023-04-15T06:22:13;64.50;;;24.98;;
51489;SDS011;57752;53.574;9.736;2023-04-15T06:27:14;70.47;;;27.02;;
51489;SDS011;57752;53.574;9.736;2023-04-15T06:32:15;72.78;;;28.02;;
51489;SDS011;57752;53.574;9.736;2023-04-15T06:37:15;77.88;;;27.95;;
51489;SDS011;57752;53.574;9.736;2023-04-15T06:42:15;86.50;;;31.40;;
51489;SDS011;57752;53.574;9.736;2023-04-15T06:47:15;87.97;;;32.78;;
51489;SDS011;57752;53.574;9.736;2023-04-15T06:52:15;82.95;;;32.35;;
51489;SDS011;57752;53.574;9.736;2023-04-15T06:57:16;88.43;;;32.90;;
51489;SDS011;57752;53.574;9.736;2023-04-15T07:02:16;90.53;;;34.78;;
51489;SDS011;57752;53.574;9.736;2023-04-15T07:07:17;88.60;;;33.38;;
51489;SDS011;57752;53.574;9.736;2023-04-15T07:12:17;94.70;;;36.78;;
51489;SDS011;57752;53.574;9.736;2023-04-15T07:17:17;94.05;;;34.15;;
51489;SDS011;57752;53.574;9.736;2023-04-15T07:22:17;91.25;;;33.88;;
51489;SDS011;57752;53.574;9.736;2023-04-15T07:27:17;88.45;;;34.72;;
51489;SDS011;57752;53.574;9.736;2023-04-15T07:32:18;106.03;;;39.05;;
51489;SDS011;57752;53.574;9.736;2023-04-15T07:37:18;90.32;;;34.90;;
51489;SDS011;57752;53.574;9.736;2023-04-15T07:42:18;97.53;;;34.50;;
51489;SDS011;57752;53.574;9.736;2023-04-15T07:47:19;74.03;;;32.15;;
51489;SDS011;57752;53.574;9.736;2023-04-15T07:52:19;90.68;;;36.75;;
51489;SDS011;57752;53.574;9.736;2023-04-15T07:57:19;105.38;;;38.53;;
51489;SDS011;57752;53.574;9.736;2023-04-15T08:02:19;99.57;;;41.40;;
51489;SDS011;57752;53.574;9.736;2023-04-15T08:07:19;103.95;;;40.20;;
51489;SDS011;57752;53.574;9.736;2023-04-15T08:12:20;104.68;;;41.72;;
51489;SDS011;57752;53.574;9.736;2023-04-15T08:17:20;113.88;;;43.17;;
51489;SDS011;57752;53.574;9.736;2023-04-15T08:22:20;110.43;;;43.23;;
51489;SDS011;57752;53.574;9.736;2023-04-15T08:27:21;101.22;;;41.25;;
51489;SDS011;57752;53.574;9.736;2023-04-15T08:32:21;109.55;;;42.63;;
51489;SDS011;57752;53.574;9.736;2023-04-15T08:37:21;99.25;;;40.53;;
51489;SDS011;57752;53.574;9.736;2023-04-15T08:42:27;99.07;;;41.22;;
51489;SDS011;57752;53.574;9.736;2023-04-15T08:47:30;94.55;;;40.47;;
51489;SDS011;57752;53.574;9.736;2023-04-15T08:52:33;90.32;;;41.75;;
51489;SDS011;57752;53.574;9.736;2023-04-15T08:57:33;97.90;;;43.33;;
51489;SDS011;57752;53.574;9.736;2023-04-15T09:02:34;101.50;;;41.65;;
51489;SDS011;57752;53.574;9.736;2023-04-15T09:07:34;91.25;;;40.20;;
51489;SDS011;57752;53.574;9.736;2023-04-15T09:12:35;96.60;;;40.60;;
51489;SDS011;57752;53.574;9.736;2023-04-15T09:17:36;95.25;;;39.67;;
51489;SDS011;57752;53.574;9.736;2023-04-15T09:22:41;87.25;;;37.95;;
51489;SDS011;57752;53.574;9.736;2023-04-15T09:27:48;83.95;;;38.17;;
51489;SDS011;57752;53.574;9.736;2023-04-15T09:32:52;81.43;;;36.67;;
51489;SDS011;57752;53.574;9.736;2023-04-15T09:38:00;74.00;;;34.65;;
51489;SDS011;57752;53.574;9.736;2023-04-15T09:43:01;78.57;;;36.10;;
51489;SDS011;57752;53.574;9.736;2023-04-15T09:48:18;76.38;;;35.80;;
51489;SDS011;57752;53.574;9.736;2023-04-15T09:53:20;79.70;;;36.83;;
51489;SDS011;57752;53.574;9.736;2023-04-15T09:58:24;79.38;;;36.70;;
51489;SDS011;57752;53.574;9.736;2023-04-15T10:03:29;70.50;;;33.10;;
51489;SDS011;57752;53.574;9.736;2023-04-15T10:08:31;74.00;;;34.43;;
51489;SDS011;57752;53.574;9.736;2023-04-15T10:13:32;64.35;;;31.33;;
51489;SDS011;57752;53.574;9.736;2023-04-15T10:18:35;63.28;;;31.40;;
51489;SDS011;57752;53.574;9.736;2023-04-15T10:23:36;65.13;;;30.60;;
51489;SDS011;57752;53.574;9.736;2023-04-15T10:28:37;56.58;;;30.92;;
51489;SDS011;57752;53.574;9.736;2023-04-15T10:33:37;59.65;;;30.38;;
51489;SDS011;57752;53.574;9.736;2023-04-15T10:38:42;62.78;;;31.13;;
51489;SDS011;57752;53.574;9.736;2023-04-15T10:43:52;58.58;;;30.80;;
51489;SDS011;57752;53.574;9.736;2023-04-15T10:48:53;56.90;;;30.08;;
51489;SDS011;57752;53.574;9.736;2023-04-15T10:53:57;50.90;;;27.05;;
51489;SDS011;57752;53.574;9.736;2023-04-15T10:58:58;52.85;;;27.52;;
51489;SDS011;57752;53.574;9.736;2023-04-15T11:03:59;51.90;;;27.77;;
51489;SDS011;57752;53.574;9.736;2023-04-15T11:09:00;51.75;;;27.13;;
51489;SDS011;57752;53.574;9.736;2023-04-15T11:14:05;48.42;;;26.13;;
51489;SDS011;57752;53.574;9.736;2023-04-15T11:19:05;49.05;;;25.90;;
51489;SDS011;57752;53.574;9.736;2023-04-15T11:24:05;47.25;;;25.65;;
51489;SDS011;57752;53.574;9.736;2023-04-15T11:29:06;43.10;;;23.77;;
51489;SDS011;57752;53.574;9.736;2023-04-15T11:34:06;41.55;;;24.48;;
51489;SDS011;57752;53.574;9.736;2023-04-15T11:39:06;41.33;;;24.08;;
51489;SDS011;57752;53.574;9.736;2023-04-15T11:44:15;37.38;;;22.02;;
51489;SDS011;57752;53.574;9.736;2023-04-15T11:49:28;36.88;;;21.77;;
51489;SDS011;57752;53.574;9.736;2023-04-15T11:54:28;32.88;;;19.77;;
51489;SDS011;57752;53.574;9.736;2023-04-15T11:59:40;34.47;;;19.80;;
51489;SDS011;57752;53.574;9.736;2023-04-15T12:04:40;29.13;;;15.88;;
51489;SDS011;57752;53.574;9.736;2023-04-15T12:09:40;18.92;;;11.32;;
51489;SDS011;57752;53.574;9.736;2023-04-15T12:14:41;20.17;;;11.75;;
51489;SDS011;57752;53.574;9.736;2023-04-15T12:19:41;20.00;;;11.00;;
51489;SDS011;57752;53.574;9.736;2023-04-15T12:24:45;19.35;;;11.52;;
51489;SDS011;57752;53.574;9.736;2023-04-15T12:29:47;21.27;;;12.55;;
51489;SDS011;57752;53.574;9.736;2023-04-15T12:34:51;21.40;;;12.40;;
51489;SDS011;57752;53.574;9.736;2023-04-15T12:39:51;18.73;;;11.25;;
51489;SDS011;57752;53.574;9.736;2023-04-15T12:44:52;17.88;;;9.98;;
51489;SDS011;57752;53.574;9.736;2023-04-15T12:49:53;20.10;;;11.25;;
51489;SDS011;57752;53.574;9.736;2023-04-15T12:54:53;18.75;;;10.80;;
51489;SDS011;57752;53.574;9.736;2023-04-15T12:59:53;18.98;;;10.77;;
51489;SDS011;57752;53.574;9.736;2023-04-15T13:04:53;18.20;;;10.35;;
51489;SDS011;57752;53.574;9.736;2023-04-15T13:09:53;17.27;;;10.75;;
51489;SDS011;57752;53.574;9.736;2023-04-15T13:14:53;20.15;;;11.63;;
51489;SDS011;57752;53.574;9.736;2023-04-15T13:19:54;20.23;;;11.43;;
51489;SDS011;57752;53.574;9.736;2023-04-15T13:24:54;20.30;;;11.57;;
51489;SDS011;57752;53.574;9.736;2023-04-15T13:29:54;21.38;;;11.30;;
51489;SDS011;57752;53.574;9.736;2023-04-15T13:34:55;20.63;;;11.30;;
51489;SDS011;57752;53.574;9.736;2023-04-15T13:39:55;20.45;;;11.88;;
51489;SDS011;57752;53.574;9.736;2023-04-15T13:44:55;21.02;;;12.45;;
51489;SDS011;57752;53.574;9.736;2023-04-15T13:49:56;20.98;;;12.65;;
51489;SDS011;57752;53.574;9.736;2023-04-15T13:54:56;19.60;;;12.13;;
51489;SDS011;57752;53.574;9.736;2023-04-15T13:59:56;20.00;;;10.65;;
51489;SDS011;57752;53.574;9.736;2023-04-15T14:04:56;19.67;;;11.10;;
51489;SDS011;57752;53.574;9.736;2023-04-15T14:09:57;18.75;;;11.00;;
51489;SDS011;57752;53.574;9.736;2023-04-15T14:14:57;20.63;;;11.20;;
51489;SDS011;57752;53.574;9.736;2023-04-15T14:19:57;18.83;;;11.13;;
51489;SDS011;57752;53.574;9.736;2023-04-15T14:24:57;20.92;;;10.93;;
51489;SDS011;57752;53.574;9.736;2023-04-15T14:29:57;19.75;;;11.30;;
51489;SDS011;57752;53.574;9.736;2023-04-15T14:34:58;19.15;;;10.73;;
51489;SDS011;57752;53.574;9.736;2023-04-15T14:39:58;19.87;;;11.33;;
51489;SDS011;57752;53.574;9.736;2023-04-15T14:44:58;19.38;;;11.45;;
51489;SDS011;57752;53.574;9.736;2023-04-15T14:49:58;20.40;;;11.25;;
51489;SDS011;57752;53.574;9.736;2023-04-15T14:54:58;18.10;;;10.68;;
51489;SDS011;57752;53.574;9.736;2023-04-15T14:59:58;16.95;;;9.80;;
51489;SDS011;57752;53.574;9.736;2023-04-15T15:04:59;20.52;;;10.85;;
51489;SDS011;57752;53.574;9.736;2023-04-15T15:10:00;18.88;;;10.43;;
51489;SDS011;57752;53.574;9.736;2023-04-15T15:15:01;19.33;;;11.15;;
51489;SDS011;57752;53.574;9.736;2023-04-15T15:20:01;19.27;;;11.07;;
51489;SDS011;57752;53.574;9.736;2023-04-15T15:25:02;17.58;;;10.20;;
51489;SDS011;57752;53.574;9.736;2023-04-15T15:30:02;18.52;;;10.07;;
51489;SDS011;57752;53.574;9.736;2023-04-15T15:35:03;17.07;;;9.63;;
51489;SDS011;57752;53.574;9.736;2023-04-15T15:40:03;21.75;;;10.43;;
51489;SDS011;57752;53.574;9.736;2023-04-15T15:45:03;17.00;;;10.73;;
51489;SDS011;57752;53.574;9.736;2023-04-15T15:50:04;21.07;;;12.33;;
51489;SDS011;57752;53.574;9.736;2023-04-15T15:55:05;23.45;;;13.40;;
51489;SDS011;57752;53.574;9.736;2023-04-15T16:00:05;21.80;;;13.27;;
51489;SDS011;57752;53.574;9.736;2023-04-15T16:05:06;25.73;;;14.02;;
51489;SDS011;57752;53.574;9.736;2023-04-15T16:10:06;21.85;;;13.70;;
51489;SDS011;57752;53.574;9.736;2023-04-15T16:15:08;25.35;;;14.43;;
51489;SDS011;57752;53.574;9.736;2023-04-15T16:20:09;25.73;;;15.10;;
51489;SDS011;57752;53.574;9.736;2023-04-15T16:25:09;28.02;;;16.27;;
51489;SDS011;57752;53.574;9.736;2023-04-15T16:30:09;27.38;;;15.25;;
51489;SDS011;57752;53.574;9.736;2023-04-15T16:35:10;23.67;;;14.77;;
51489;SDS011;57752;53.574;9.736;2023-04-15T16:40:10;29.65;;;15.98;;
51489;SDS011;57752;53.574;9.736;2023-04-15T16:45:11;25.10;;;14.90;;
51489;SDS011;57752;53.574;9.736;2023-04-15T16:50:11;26.70;;;14.35;;
51489;SDS011;57752;53.574;9.736;2023-04-15T16:55:11;25.15;;;15.23;;
51489;SDS011;57752;53.574;9.736;2023-04-15T17:00:11;24.92;;;14.10;;
51489;SDS011;57752;53.574;9.736;2023-04-15T17:05:12;25.70;;;14.82;;
51489;SDS011;57752;53.574;9.736;2023-04-15T17:10:12;26.13;;;16.02;;
51489;SDS011;57752;53.574;9.736;2023-04-15T17:15:12;26.35;;;16.33;;
51489;SDS011;57752;53.574;9.736;2023-04-15T17:20:13;25.67;;;15.63;;
51489;SDS011;57752;53.574;9.736;2023-04-15T17:25:13;28.58;;;15.10;;
51489;SDS011;57752;53.574;9.736;2023-04-15T17:30:13;25.50;;;14.48;;
51489;SDS011;57752;53.574;9.736;2023-04-15T17:35:13;24.85;;;15.35;;
51489;SDS011;57752;53.574;9.736;2023-04-15T17:40:14;26.23;;;14.88;;
51489;SDS011;57752;53.574;9.736;2023-04-15T17:45:14;24.42;;;15.30;;
51489;SDS011;57752;53.574;9.736;2023-04-15T17:50:14;24.80;;;15.65;;
51489;SDS011;57752;53.574;9.736;2023-04-15T17:55:14;28.65;;;16.90;;
51489;SDS011;57752;53.574;9.736;2023-04-15T18:00:15;27.33;;;15.93;;
51489;SDS011;57752;53.574;9.736;2023-04-15T18:05:15;27.93;;;16.43;;
51489;SDS011;57752;53.574;9.736;2023-04-15T18:10:17;29.95;;;16.77;;
51489;SDS011;57752;53.574;9.736;2023-04-15T18:15:18;29.65;;;17.65;;
51489;SDS011;57752;53.574;9.736;2023-04-15T18:20:18;27.92;;;17.83;;
51489;SDS011;57752;53.574;9.736;2023-04-15T18:25:19;28.83;;;17.73;;
51489;SDS011;57752;53.574;9.736;2023-04-15T18:30:19;31.98;;;18.42;;
51489;SDS011;57752;53.574;9.736;2023-04-15T18:35:19;28.85;;;18.45;;
51489;SDS011;57752;53.574;9.736;2023-04-15T18:40:19;30.83;;;18.00;;
51489;SDS011;57752;53.574;9.736;2023-04-15T18:45:19;28.85;;;17.92;;
51489;SDS011;57752;53.574;9.736;2023-04-15T18:50:20;34.63;;;19.25;;
51489;SDS011;57752;53.574;9.736;2023-04-15T18:55:20;34.08;;;19.10;;
51489;SDS011;57752;53.574;9.736;2023-04-15T19:00:20;33.85;;;20.10;;
51489;SDS011;57752;53.574;9.736;2023-04-15T19:05:20;31.52;;;19.75;;
51489;SDS011;57752;53.574;9.736;2023-04-15T19:10:20;32.33;;;19.45;;
51489;SDS011;57752;53.574;9.736;2023-04-15T19:15:22;33.40;;;19.08;;
51489;SDS011;57752;53.574;9.736;2023-04-15T19:20:22;32.70;;;19.63;;
51489;SDS011;57752;53.574;9.736;2023-04-15T19:25:22;31.65;;;19.67;;
51489;SDS011;57752;53.574;9.736;2023-04-15T19:30:22;33.42;;;19.23;;
51489;SDS011;57752;53.574;9.736;2023-04-15T19:35:22;33.05;;;18.13;;
51489;SDS011;57752;53.574;9.736;2023-04-15T19:40:22;31.42;;;18.13;;
51489;SDS011;57752;53.574;9.736;2023-04-15T19:45:23;32.97;;;18.65;;
51489;SDS011;57752;53.574;9.736;2023-04-15T19:50:23;33.85;;;17.63;;
51489;SDS011;57752;53.574;9.736;2023-04-15T19:55:25;28.60;;;17.40;;
51489;SDS011;57752;53.574;9.736;2023-04-15T20:00:25;32.28;;;17.00;;
51489;SDS011;57752;53.574;9.736;2023-04-15T20:05:26;34.55;;;18.35;;
51489;SDS011;57752;53.574;9.736;2023-04-15T20:10:26;32.92;;;18.13;;
51489;SDS011;57752;53.574;9.736;2023-04-15T20:15:26;32.00;;;18.92;;
51489;SDS011;57752;53.574;9.736;2023-04-15T20:20:26;31.60;;;17.77;;
51489;SDS011;57752;53.574;9.736;2023-04-15T20:25:27;32.22;;;18.55;;
51489;SDS011;57752;53.574;9.736;2023-04-15T20:30:27;32.95;;;17.98;;
51489;SDS011;57752;53.574;9.736;2023-04-15T20:35:28;31.90;;;18.42;;
51489;SDS011;57752;53.574;9.736;2023-04-15T20:40:29;30.85;;;18.13;;
51489;SDS011;57752;53.574;9.736;2023-04-15T20:45:32;31.20;;;16.88;;
51489;SDS011;57752;53.574;9.736;2023-04-15T20:50:32;32.67;;;17.67;;
51489;SDS011;57752;53.574;9.736;2023-04-15T20:55:32;34.90;;;18.05;;
51489;SDS011;57752;53.574;9.736;2023-04-15T21:00:33;33.50;;;18.40;;
51489;SDS011;57752;53.574;9.736;2023-04-15T21:05:33;30.90;;;17.17;;
51489;SDS011;57752;53.574;9.736;2023-04-15T21:10:33;32.15;;;17.63;;
51489;SDS011;57752;53.574;9.736;2023-04-15T21:15:34;32.45;;;17.77;;
51489;SDS011;57752;53.574;9.736;2023-04-15T21:20:34;34.15;;;17.70;;
51489;SDS011;57752;53.574;9.736;2023-04-15T21:25:34;31.08;;;17.58;;
51489;SDS011;57752;53.574;9.736;2023-04-15T21:30:34;35.22;;;19.50;;
51489;SDS011;57752;53.574;9.736;2023-04-15T21:35:34;35.85;;;18.35;;
51489;SDS011;57752;53.574;9.736;2023-04-15T21:40:35;31.37;;;17.33;;
51489;SDS011;57752;53.574;9.736;2023-04-15T21:45:39;35.45;;;19.08;;
51489;SDS011;57752;53.574;9.736;2023-04-15T21:50:39;38.67;;;19.17;;
51489;SDS011;57752;53.574;9.736;2023-04-15T21:55:39;33.67;;;17.60;;
51489;SDS011;57752;53.574;9.736;2023-04-15T22:00:39;33.35;;;18.95;;
51489;SDS011;57752;53.574;9.736;2023-04-15T22:05:42;36.70;;;19.90;;
51489;SDS011;57752;53.574;9.736;2023-04-15T22:10:42;36.80;;;19.52;;
51489;SDS011;57752;53.574;9.736;2023-04-15T22:15:43;39.17;;;19.65;;
51489;SDS011;57752;53.574;9.736;2023-04-15T22:20:43;32.90;;;19.20;;
51489;SDS011;57752;53.574;9.736;2023-04-15T22:25:43;36.30;;;18.35;;
51489;SDS011;57752;53.574;9.736;2023-04-15T22:30:43;33.85;;;18.50;;
51489;SDS011;57752;53.574;9.736;2023-04-15T22:35:43;38.45;;;20.00;;
51489;SDS011;57752;53.574;9.736;2023-04-15T22:40:44;37.17;;;19.55;;
51489;SDS011;57752;53.574;9.736;2023-04-15T22:45:48;38.47;;;20.05;;
51489;SDS011;57752;53.574;9.736;2023-04-15T22:50:48;34.47;;;19.52;;
51489;SDS011;57752;53.574;9.736;2023-04-15T22:55:48;36.22;;;19.98;;
51489;SDS011;57752;53.574;9.736;2023-04-15T23:00:49;39.70;;;20.95;;
51489;SDS011;57752;53.574;9.736;2023-04-15T23:05:49;37.88;;;19.77;;
51489;SDS011;57752;53.574;9.736;2023-04-15T23:10:49;38.28;;;19.42;;
51489;SDS011;57752;53.574;9.736;2023-04-15T23:15:50;39.47;;;20.08;;
51489;SDS011;57752;53.574;9.736;2023-04-15T23:20:50;40.83;;;19.30;;
51489;SDS011;57752;53.574;9.736;2023-04-15T23:25:50;39.25;;;20.58;;
51489;SDS011;57752;53.574;9.736;2023-04-15T23:30:50;35.33;;;19.73;;
51489;SDS011;57752;53.574;9.736;2023-04-15T23:35:50;37.70;;;20.00;;
51489;SDS011;57752;53.574;9.736;2023-04-15T23:40:51;38.88;;;19.02;;
51489;SDS011;57752;53.574;9.736;2023-04-15T23:45:51;38.10;;;20.17;;
51489;SDS011;57752;53.574;9.736;2023-04-15T23:50:51;37.08;;;19.95;;
51489;SDS011;57752;53.574;9.736;2023-04-15T23:55:51;35.05;;;18.77;;
